Thorp, WI

4:05 PM CDT on July 28, 2015 (GMT -0500)
Bateman | | Change Station
CLOSE
Current Station
Personal Weather Station
Location: Chippewa Falls, WI
Elevation: 928 ft
Nearby Weather Stations

Elev 928 ft 44.93 °N, 91.27 °W | Updated 0 second ago

Mostly Cloudy
Mostly Cloudy
84.6 °F
Feels Like 91 °F
N
4.6
Wind Variable Wind from South
Gusts 4.6 mph

Today
High -- | Low -- °F
--% Chance of Precip.
Yesterday
High -- | Low -- °F
Precip. -- in
5:43 AM 8:34 PM
Waxing Gibbous, 91% visible
Pressure 29.90 in
Visibility 10.0 miles
Clouds Mostly Cloudy 2500 ft
Mostly Cloudy 3000 ft
Heat Index 91 °F
Dew Point 73 °F
Humidity 68%
Rainfall 0.49 in
Snow Depth Not available.
UV 4 out of 12
Pollen 4.40 out of 12
Air Quality Not available.
Flu Activity Not available.
METAR KMDZ 282055Z AUTO 18008KT 10SM BKN025 BKN030 26/21 A2990 RMK AO2 T02600210

More Conditions Fewer Conditions

Pressure 29.90 in
Visibility 10.0 miles
Clouds Mostly Cloudy 2500 ft
Mostly Cloudy 3000 ft
Heat Index 91 °F
Dew Point 73 °F
Humidity 68%
Rainfall 0.49 in
Snow Depth Not available.
UV 4 out of 12
Pollen 4.40 out of 12
Air Quality Not available.
Flu Activity Not available.
METAR KMDZ 282055Z AUTO 18008KT 10SM BKN025 BKN030 26/21 A2990 RMK AO2 T02600210

More Conditions Fewer Conditions

10-Day Weather Forecast

×

Almanac

Astronomy

Jul. 28, 2015 Rise Set
Actual Time
Civil Twilight
Nautical Twilight
Astronomical Twilight
Moon
Length of Visible Light
Length of Day
Tomorrow will be .
, % of the Moon is Illuminated

Today's Extremes

State Highs State Lows

Community

WunderPhotos

Upload Photos

1,841,942 photos uploaded!

WunderBlogs® & News

Nearby

Air Quality

  Air Quality AQ Index Pollutant
Not available.

Snow Depth

Station Depth Elevation

Earthquake Activity

City Distance Mag. Time & Date
Minimum magnitude displayed is 2.5.

Coastal Water Temperatures

Place Temperature

Stations

Nearby Weather Stations

Station Location Temp. Windchill Dew Point Humidity Wind Precip. Elev Updated Type